createdAt,value
2023-05-13T00:01:38.691Z,14.02
2023-05-13T00:04:07.561Z,14.02
2023-05-13T00:06:35.298Z,14.60
2023-05-13T00:09:03.318Z,14.35
2023-05-13T00:11:30.970Z,15.20
2023-05-13T00:13:58.346Z,13.77
2023-05-13T00:16:27.785Z,13.93
2023-05-13T00:18:56.380Z,13.15
2023-05-13T00:21:23.921Z,14.02
2023-05-13T00:23:51.438Z,13.25
2023-05-13T00:26:19.167Z,14.35
2023-05-13T00:28:47.421Z,13.32
2023-05-13T00:31:15.819Z,12.57
2023-05-13T00:33:43.515Z,13.30
2023-05-13T00:36:12.458Z,13.88
2023-05-13T00:38:39.976Z,12.77
2023-05-13T00:41:08.380Z,13.55
2023-05-13T00:43:35.814Z,12.90
2023-05-13T00:46:03.368Z,12.27
2023-05-13T00:48:31.207Z,11.93
2023-05-13T00:50:59.480Z,13.00
2023-05-13T00:53:26.889Z,12.35
2023-05-13T00:55:54.808Z,14.02
2023-05-13T00:58:22.154Z,12.63
2023-05-13T01:01:05.699Z,12.55
2023-05-13T01:03:46.479Z,14.07
2023-05-13T01:06:17.167Z,13.00
2023-05-13T01:08:58.483Z,13.15
2023-05-13T01:11:32.794Z,12.68
2023-05-13T01:14:10.514Z,13.23
2023-05-13T01:16:50.728Z,12.37
2023-05-13T01:19:32.480Z,12.25
2023-05-13T01:21:59.859Z,12.82
2023-05-13T01:24:27.641Z,12.32
2023-05-13T01:26:55.582Z,12.32
2023-05-13T01:29:22.987Z,12.35
2023-05-13T01:31:51.212Z,13.30
2023-05-13T01:34:20.871Z,12.48
2023-05-13T01:36:48.691Z,12.13
2023-05-13T01:39:18.541Z,12.75
2023-05-13T01:41:46.222Z,11.65
2023-05-13T01:44:13.670Z,12.43
2023-05-13T01:46:43.890Z,11.48
2023-05-13T01:49:11.371Z,11.95
2023-05-13T01:51:38.818Z,11.85
2023-05-13T01:54:06.522Z,12.02
2023-05-13T01:56:35.380Z,11.35
2023-05-13T01:59:03.287Z,11.90
2023-05-13T02:01:31.072Z,11.70
2023-05-13T02:04:00.041Z,12.57
2023-05-13T02:06:28.204Z,12.95
2023-05-13T02:08:55.807Z,12.48
2023-05-13T02:11:23.815Z,12.52
2023-05-13T02:13:51.309Z,14.20
2023-05-13T02:16:20.669Z,14.27
2023-05-13T02:18:48.450Z,14.23
2023-05-13T02:21:16.138Z,14.05
2023-05-13T02:23:44.842Z,15.95
2023-05-13T02:26:12.594Z,15.32
2023-05-13T02:28:40.326Z,15.70
2023-05-13T02:31:08.056Z,16.17
2023-05-13T02:33:35.817Z,16.58
2023-05-13T02:36:03.297Z,16.67
2023-05-13T02:38:31.248Z,16.62
2023-05-13T02:40:59.258Z,16.92
2023-05-13T02:43:27.591Z,16.70
2023-05-13T02:45:55.678Z,16.92
2023-05-13T02:48:23.158Z,17.62
2023-05-13T02:50:50.853Z,17.10
2023-05-13T02:53:18.496Z,17.42
2023-05-13T02:55:46.470Z,17.87
2023-05-13T02:58:15.405Z,16.62
2023-05-13T03:00:43.182Z,16.17
2023-05-13T03:03:10.860Z,16.55
2023-05-13T03:05:38.359Z,16.20
2023-05-13T03:08:06.121Z,15.73
2023-05-13T03:10:33.574Z,16.02
2023-05-13T03:13:01.415Z,15.13
2023-05-13T03:15:30.007Z,15.82
2023-05-13T03:17:57.958Z,14.73
2023-05-13T03:20:25.696Z,16.20
2023-05-13T03:22:53.478Z,15.82
2023-05-13T03:25:20.878Z,14.95
2023-05-13T03:27:48.633Z,14.15
2023-05-13T03:30:16.821Z,15.13
2023-05-13T03:32:44.995Z,13.70
2023-05-13T03:35:12.875Z,14.27
2023-05-13T03:37:40.582Z,15.57
2023-05-13T03:40:08.637Z,15.65
2023-05-13T03:42:36.245Z,14.48
2023-05-13T03:45:04.564Z,14.10
2023-05-13T03:47:32.714Z,15.02
2023-05-13T03:50:00.994Z,14.85
2023-05-13T03:52:30.574Z,14.82
2023-05-13T03:54:57.988Z,14.43
2023-05-13T03:57:25.637Z,13.32
2023-05-13T03:59:53.299Z,14.32
2023-05-13T04:02:21.863Z,13.68
2023-05-13T04:04:49.810Z,12.88
2023-05-13T04:07:17.262Z,13.82
2023-05-13T04:09:44.624Z,13.07
2023-05-13T04:12:12.393Z,13.38
2023-05-13T04:14:40.193Z,13.60
2023-05-13T04:17:07.732Z,13.15
2023-05-13T04:19:35.433Z,12.55
2023-05-13T04:22:02.820Z,12.93
2023-05-13T04:24:30.307Z,12.98
2023-05-13T04:27:00.026Z,12.77
2023-05-13T04:29:29.452Z,12.93
2023-05-13T04:31:57.171Z,13.48
2023-05-13T04:34:24.950Z,12.73
2023-05-13T04:36:52.815Z,13.57
2023-05-13T04:39:20.359Z,13.57
2023-05-13T04:41:47.994Z,13.48
2023-05-13T04:44:15.382Z,13.20
2023-05-13T04:46:44.908Z,13.68
2023-05-13T04:49:12.720Z,13.07
2023-05-13T04:51:40.355Z,13.15
2023-05-13T04:54:08.485Z,15.13
2023-05-13T04:56:36.171Z,13.05
2023-05-13T04:59:03.604Z,14.23
2023-05-13T05:01:31.184Z,12.98
2023-05-13T05:04:02.674Z,13.50
2023-05-13T05:06:31.327Z,12.70
2023-05-13T05:08:59.278Z,14.07
2023-05-13T05:11:26.686Z,13.57
2023-05-13T05:13:54.329Z,13.45
2023-05-13T05:16:22.110Z,14.73
2023-05-13T05:18:49.628Z,13.68
2023-05-13T05:21:18.712Z,13.25
2023-05-13T05:23:46.862Z,13.95
2023-05-13T05:26:14.277Z,12.35
2023-05-13T05:28:43.127Z,13.73
2023-05-13T05:31:10.969Z,13.00
2023-05-13T05:33:40.010Z,13.68
2023-05-13T05:36:07.767Z,13.88
2023-05-13T05:38:35.991Z,13.70
2023-05-13T05:41:04.842Z,13.95
2023-05-13T05:43:32.285Z,13.55
2023-05-13T05:46:00.045Z,13.30
2023-05-13T05:48:27.497Z,14.50
2023-05-13T05:50:56.341Z,14.52
2023-05-13T05:53:24.346Z,14.48
2023-05-13T05:55:53.273Z,13.35
2023-05-13T05:58:21.029Z,13.93
2023-05-13T06:00:49.297Z,14.27
2023-05-13T06:03:17.712Z,14.13
2023-05-13T06:05:45.448Z,14.82
2023-05-13T06:08:12.859Z,14.52
2023-05-13T06:10:40.813Z,14.52
2023-05-13T06:13:08.149Z,12.50
2023-05-13T06:15:36.556Z,13.15
2023-05-13T06:18:06.108Z,13.05
2023-05-13T06:20:33.697Z,13.07
2023-05-13T06:23:01.072Z,12.48
2023-05-13T06:25:28.740Z,12.27
2023-05-13T06:27:56.256Z,12.65
2023-05-13T06:30:23.883Z,11.30
2023-05-13T06:33:01.029Z,10.57
2023-05-13T06:35:30.497Z,12.55
2023-05-13T06:37:58.756Z,11.05
2023-05-13T06:40:26.400Z,11.45
2023-05-13T06:42:53.900Z,12.37
2023-05-13T06:45:23.471Z,12.30
2023-05-13T06:47:51.751Z,12.43
2023-05-13T06:50:19.895Z,12.07
2023-05-13T06:52:47.766Z,11.93
2023-05-13T06:55:16.680Z,11.40
2023-05-13T06:57:46.789Z,11.68
2023-05-13T07:00:15.322Z,11.30
2023-05-13T07:02:42.798Z,11.15
2023-05-13T07:05:11.695Z,10.65
2023-05-13T07:07:39.387Z,10.77
2023-05-13T07:10:07.124Z,11.88
2023-05-13T07:12:34.495Z,11.80
2023-05-13T07:15:02.690Z,11.07
2023-05-13T07:17:31.406Z,10.43
2023-05-13T07:19:59.298Z,10.13
2023-05-13T07:22:27.549Z,10.60
2023-05-13T07:24:55.226Z,19.98
2023-05-13T07:27:22.884Z,16.60
2023-05-13T07:29:50.552Z,9.60
2023-05-13T07:32:18.046Z,8.35
2023-05-13T07:34:45.448Z,8.75
2023-05-13T07:37:13.096Z,8.65
2023-05-13T07:39:40.649Z,8.45
2023-05-13T07:42:08.115Z,11.90
2023-05-13T07:44:35.770Z,8.95
2023-05-13T07:47:03.248Z,8.80
2023-05-13T07:49:30.660Z,9.27
2023-05-13T07:51:58.408Z,7.72
2023-05-13T07:54:25.870Z,8.18
2023-05-13T07:56:53.400Z,7.43
2023-05-13T07:59:21.079Z,7.95
2023-05-13T08:01:48.528Z,6.72
2023-05-13T08:04:16.754Z,9.18
2023-05-13T08:06:44.219Z,7.45
2023-05-13T08:09:12.314Z,7.72
2023-05-13T08:11:40.246Z,6.68
2023-05-13T08:14:07.704Z,7.80
2023-05-13T08:16:38.895Z,7.40
2023-05-13T08:19:06.703Z,6.75
2023-05-13T08:21:34.137Z,7.80
2023-05-13T08:24:01.589Z,7.00
2023-05-13T08:26:29.199Z,7.50
2023-05-13T08:28:58.157Z,7.78
2023-05-13T08:31:25.693Z,7.47
2023-05-13T08:33:54.027Z,9.63
2023-05-13T08:36:25.941Z,6.37
2023-05-13T08:38:53.656Z,7.55
2023-05-13T08:41:22.845Z,8.18
2023-05-13T08:43:51.966Z,9.23
2023-05-13T08:46:21.131Z,9.23
2023-05-13T08:48:49.140Z,8.25
2023-05-13T08:51:16.787Z,9.73
2023-05-13T08:53:44.429Z,8.70
2023-05-13T08:56:12.487Z,8.02
2023-05-13T08:58:39.898Z,7.35
2023-05-13T09:01:07.874Z,7.65
2023-05-13T09:03:36.332Z,8.25
2023-05-13T09:06:04.266Z,8.18
2023-05-13T09:08:32.766Z,7.68
2023-05-13T09:11:00.896Z,7.20
2023-05-13T09:13:28.322Z,7.87
2023-05-13T09:15:56.097Z,7.78
2023-05-13T09:18:30.768Z,8.48
2023-05-13T09:20:58.528Z,8.27
2023-05-13T09:23:27.005Z,7.85
2023-05-13T09:25:54.418Z,8.18
2023-05-13T09:28:23.613Z,7.45
2023-05-13T09:30:55.646Z,7.87
2023-05-13T09:33:30.318Z,8.75
2023-05-13T09:35:57.735Z,7.85
2023-05-13T09:38:26.177Z,7.53
2023-05-13T09:40:57.764Z,6.82
2023-05-13T09:43:27.466Z,7.37
2023-05-13T09:45:55.902Z,7.45
2023-05-13T09:48:25.971Z,6.85
2023-05-13T09:50:55.047Z,6.45
2023-05-13T09:53:22.509Z,7.07
2023-05-13T09:55:52.077Z,6.43
2023-05-13T09:58:20.477Z,6.10
2023-05-13T10:00:48.250Z,6.37
2023-05-13T10:03:16.470Z,5.80
2023-05-13T10:05:44.019Z,6.35
2023-05-13T10:08:13.008Z,6.18
2023-05-13T10:10:42.205Z,6.57
2023-05-13T10:13:13.429Z,6.25
2023-05-13T10:15:45.244Z,6.87
2023-05-13T10:18:13.268Z,5.07
2023-05-13T10:20:42.172Z,6.05
2023-05-13T10:23:10.458Z,5.90
2023-05-13T10:25:38.233Z,5.97
2023-05-13T10:28:06.760Z,6.28
2023-05-13T10:30:35.923Z,6.35
2023-05-13T10:33:04.154Z,6.10
2023-05-13T10:35:38.625Z,5.97
2023-05-13T10:38:11.339Z,6.47
2023-05-13T10:40:57.834Z,6.53
2023-05-13T10:43:29.416Z,7.12
2023-05-13T10:46:08.233Z,6.90
2023-05-13T10:49:02.129Z,6.28
2023-05-13T10:51:29.946Z,6.22
2023-05-13T10:54:00.515Z,6.22
2023-05-13T10:56:28.617Z,6.85
2023-05-13T10:59:04.477Z,5.97
2023-05-13T11:01:36.116Z,6.95
2023-05-13T11:04:05.463Z,6.72
2023-05-13T11:06:37.677Z,6.47
2023-05-13T11:09:16.109Z,6.30
2023-05-13T11:11:47.842Z,6.40
2023-05-13T11:14:23.162Z,6.40
2023-05-13T11:16:55.457Z,7.60
2023-05-13T11:19:28.582Z,7.22
2023-05-13T11:21:59.725Z,7.30
2023-05-13T11:24:27.461Z,7.12
2023-05-13T11:26:56.740Z,6.65
2023-05-13T11:29:31.584Z,6.97
2023-05-13T11:32:01.095Z,7.53
2023-05-13T11:34:29.301Z,6.93
2023-05-13T11:37:03.864Z,6.72
2023-05-13T11:39:32.519Z,7.62
2023-05-13T11:42:01.886Z,7.45
2023-05-13T11:44:29.517Z,7.12
2023-05-13T11:46:57.850Z,6.80
2023-05-13T11:49:41.312Z,7.10
2023-05-13T11:52:11.887Z,6.80
2023-05-13T11:54:53.451Z,7.22
2023-05-13T11:57:26.126Z,7.55
2023-05-13T11:59:58.252Z,7.18
2023-05-13T12:02:37.501Z,6.95
2023-05-13T12:05:07.225Z,7.15
2023-05-13T12:07:35.376Z,7.35
2023-05-13T12:10:04.464Z,6.80
2023-05-13T12:12:40.731Z,7.85
2023-05-13T12:15:13.800Z,7.20
2023-05-13T12:17:41.910Z,7.03
2023-05-13T12:20:11.482Z,7.65
2023-05-13T12:22:45.248Z,7.45
2023-05-13T12:25:43.850Z,8.00
2023-05-13T12:28:18.941Z,7.47
2023-05-13T12:30:58.238Z,7.78
2023-05-13T12:33:28.232Z,7.70
2023-05-13T12:36:15.097Z,7.85
2023-05-13T12:38:56.331Z,8.10
2023-05-13T12:41:26.722Z,7.82
2023-05-13T12:43:58.805Z,7.68
2023-05-13T12:46:26.978Z,7.87
2023-05-13T12:48:59.348Z,7.30
2023-05-13T12:51:27.552Z,8.60
2023-05-13T12:53:55.743Z,7.00
2023-05-13T12:56:23.748Z,8.32
2023-05-13T12:58:53.359Z,7.57
2023-05-13T13:01:21.286Z,9.15
2023-05-13T13:03:49.106Z,7.87
2023-05-13T13:06:17.912Z,8.73
2023-05-13T13:08:45.785Z,11.30
2023-05-13T13:11:18.871Z,11.23
2023-05-13T13:13:47.222Z,8.35
2023-05-13T13:16:14.942Z,15.13
2023-05-13T13:18:42.839Z,8.32
2023-05-13T13:21:13.365Z,8.32
2023-05-13T13:23:43.866Z,8.05
2023-05-13T13:26:11.610Z,8.05
2023-05-13T13:28:39.297Z,8.25
2023-05-13T13:31:07.734Z,7.60
2023-05-13T13:33:35.137Z,8.77
2023-05-13T13:36:03.143Z,7.90
2023-05-13T13:38:30.522Z,7.68
2023-05-13T13:40:57.872Z,7.80
2023-05-13T13:43:25.486Z,7.30
2023-05-13T13:45:53.795Z,7.65
2023-05-13T13:48:21.598Z,6.75
2023-05-13T13:50:50.636Z,7.25
2023-05-13T13:53:19.604Z,7.10
2023-05-13T13:55:47.028Z,7.00
2023-05-13T13:58:15.749Z,7.43
2023-05-13T14:00:43.202Z,6.97
2023-05-13T14:03:10.954Z,6.90
2023-05-13T14:05:38.430Z,7.60
2023-05-13T14:08:06.409Z,7.45
2023-05-13T14:10:34.118Z,7.10
2023-05-13T14:13:01.624Z,7.20
2023-05-13T14:15:30.728Z,7.22
2023-05-13T14:17:58.622Z,6.68
2023-05-13T14:20:28.789Z,6.78
2023-05-13T14:22:56.583Z,7.20
2023-05-13T14:25:24.383Z,6.87
2023-05-13T14:27:51.817Z,6.57
2023-05-13T14:30:19.383Z,6.72
2023-05-13T14:32:47.407Z,6.85
2023-05-13T14:35:14.868Z,6.20
2023-05-13T14:37:42.664Z,17.25
2023-05-13T14:40:10.531Z,26.23
2023-05-13T14:42:37.957Z,17.62
2023-05-13T14:45:06.351Z,7.05
2023-05-13T14:47:34.049Z,7.60
2023-05-13T14:50:01.473Z,7.47
2023-05-13T14:52:29.026Z,6.32
2023-05-13T14:54:56.804Z,6.20
2023-05-13T14:57:24.276Z,6.47
2023-05-13T14:59:51.694Z,5.15
2023-05-13T15:02:19.412Z,5.53
2023-05-13T15:04:50.865Z,6.22
2023-05-13T15:07:24.810Z,7.32
2023-05-13T15:09:52.330Z,6.95
2023-05-13T15:12:19.720Z,6.90
2023-05-13T15:14:54.598Z,7.32
2023-05-13T15:17:22.135Z,7.72
2023-05-13T15:19:49.916Z,9.30
2023-05-13T15:22:18.156Z,7.35
2023-05-13T15:24:45.571Z,5.97
2023-05-13T15:27:14.200Z,7.18
2023-05-13T15:29:41.631Z,6.40
2023-05-13T15:32:09.019Z,7.30
2023-05-13T15:34:36.708Z,6.62
2023-05-13T15:37:04.414Z,6.57
2023-05-13T15:39:31.896Z,6.53
2023-05-13T15:41:59.642Z,7.12
2023-05-13T15:44:27.223Z,7.37
2023-05-13T15:46:54.702Z,6.80
2023-05-13T15:49:22.905Z,6.80
2023-05-13T15:51:50.719Z,7.07
2023-05-13T15:54:18.350Z,6.95
2023-05-13T15:56:46.125Z,8.65
2023-05-13T15:59:13.606Z,9.38
2023-05-13T16:01:41.823Z,8.32
2023-05-13T16:04:09.611Z,7.28
2023-05-13T16:06:37.057Z,6.55
2023-05-13T16:09:04.545Z,6.50
2023-05-13T16:11:32.338Z,5.97
2023-05-13T16:13:59.744Z,6.40
2023-05-13T16:16:27.301Z,6.93
2023-05-13T16:18:55.143Z,6.60
2023-05-13T16:21:22.660Z,6.15
2023-05-13T16:23:51.052Z,6.22
2023-05-13T16:26:18.758Z,6.00
2023-05-13T16:28:46.213Z,6.37
2023-05-13T16:31:13.874Z,6.47
2023-05-13T16:33:41.622Z,6.07
2023-05-13T16:36:11.763Z,6.25
2023-05-13T16:38:41.374Z,6.68
2023-05-13T16:41:09.208Z,6.75
2023-05-13T16:43:36.606Z,6.90
2023-05-13T16:46:04.075Z,6.37
2023-05-13T16:48:31.761Z,7.22
2023-05-13T16:50:59.208Z,7.75
2023-05-13T16:53:26.684Z,7.10
2023-05-13T16:55:54.370Z,7.18
2023-05-13T16:58:22.152Z,6.78
2023-05-13T17:00:49.695Z,7.20
2023-05-13T17:03:17.605Z,7.03
2023-05-13T17:05:45.202Z,7.03
2023-05-13T17:08:12.608Z,6.60
2023-05-13T17:10:40.497Z,7.00
2023-05-13T17:13:08.157Z,6.70
2023-05-13T17:15:35.818Z,6.82
2023-05-13T17:18:03.856Z,6.90
2023-05-13T17:20:31.374Z,7.85
2023-05-13T17:22:58.753Z,7.32
2023-05-13T17:25:26.552Z,6.72
2023-05-13T17:27:54.151Z,7.32
2023-05-13T17:30:23.022Z,7.05
2023-05-13T17:32:50.867Z,6.32
2023-05-13T17:35:18.354Z,8.02
2023-05-13T17:37:46.187Z,7.78
2023-05-13T17:40:13.927Z,7.50
2023-05-13T17:42:41.318Z,8.45
2023-05-13T17:45:09.193Z,8.38
2023-05-13T17:47:37.036Z,7.78
2023-05-13T17:50:04.830Z,7.55
2023-05-13T17:52:32.266Z,7.43
2023-05-13T17:55:00.346Z,7.87
2023-05-13T17:57:27.979Z,7.32
2023-05-13T17:59:55.475Z,8.15
2023-05-13T18:02:24.132Z,7.35
2023-05-13T18:04:52.682Z,7.50
2023-05-13T18:07:20.028Z,7.00
2023-05-13T18:09:49.311Z,7.35
2023-05-13T18:12:18.050Z,7.20
2023-05-13T18:14:45.470Z,7.78
2023-05-13T18:17:12.812Z,7.45
2023-05-13T18:19:40.535Z,6.80
2023-05-13T18:22:11.060Z,7.78
2023-05-13T18:24:38.957Z,8.27
2023-05-13T18:27:07.379Z,8.30
2023-05-13T18:29:35.435Z,8.38
2023-05-13T18:32:03.214Z,7.50
2023-05-13T18:34:31.244Z,8.32
2023-05-13T18:37:01.625Z,8.05
2023-05-13T18:39:29.041Z,8.10
2023-05-13T18:41:56.682Z,7.87
2023-05-13T18:44:24.123Z,8.32
2023-05-13T18:46:52.256Z,8.43
2023-05-13T18:49:19.883Z,9.27
2023-05-13T18:51:47.389Z,8.18
2023-05-13T18:54:14.839Z,7.95
2023-05-13T18:56:43.203Z,8.13
2023-05-13T18:59:10.586Z,7.78
2023-05-13T19:01:38.018Z,7.78
2023-05-13T19:04:06.084Z,8.10
2023-05-13T19:06:36.278Z,7.70
2023-05-13T19:09:03.939Z,8.75
2023-05-13T19:11:32.288Z,8.68
2023-05-13T19:13:59.805Z,8.05
2023-05-13T19:16:27.273Z,8.02
2023-05-13T19:18:57.846Z,8.23
2023-05-13T19:21:25.484Z,8.50
2023-05-13T19:23:52.978Z,10.57
2023-05-13T19:26:20.717Z,10.82
2023-05-13T19:28:48.919Z,10.52
2023-05-13T19:31:16.444Z,9.65
2023-05-13T19:33:46.074Z,10.25
2023-05-13T19:36:14.013Z,8.55
2023-05-13T19:38:41.469Z,8.23
2023-05-13T19:41:09.136Z,9.10
2023-05-13T19:43:37.192Z,9.73
2023-05-13T19:46:04.946Z,9.05
2023-05-13T19:48:32.803Z,9.15
2023-05-13T19:51:00.381Z,9.93
2023-05-13T19:53:27.820Z,9.15
2023-05-13T19:55:56.114Z,9.85
2023-05-13T19:58:23.684Z,9.32
2023-05-13T20:00:51.311Z,9.57
2023-05-13T20:03:19.081Z,9.38
2023-05-13T20:05:48.203Z,10.07
2023-05-13T20:08:15.913Z,9.55
2023-05-13T20:10:43.767Z,9.98
2023-05-13T20:13:11.268Z,9.75
2023-05-13T20:15:38.733Z,8.90
2023-05-13T20:18:06.692Z,9.48
2023-05-13T20:20:34.339Z,9.52
2023-05-13T20:23:02.141Z,9.02
2023-05-13T20:25:29.831Z,8.23
2023-05-13T20:27:57.795Z,8.95
2023-05-13T20:30:25.483Z,8.15
2023-05-13T20:32:53.453Z,8.68
2023-05-13T20:35:21.079Z,8.85
2023-05-13T20:37:48.452Z,8.43
2023-05-13T20:40:16.813Z,8.40
2023-05-13T20:42:44.581Z,7.43
2023-05-13T20:45:12.972Z,8.20
2023-05-13T20:47:40.939Z,7.95
2023-05-13T20:50:08.797Z,8.07
2023-05-13T20:52:36.357Z,7.80
2023-05-13T20:55:04.942Z,7.70
2023-05-13T20:57:32.365Z,8.23
2023-05-13T20:59:59.952Z,8.27
2023-05-13T21:02:27.943Z,8.02
2023-05-13T21:04:55.773Z,7.50
2023-05-13T21:07:23.157Z,8.00
2023-05-13T21:09:51.386Z,8.35
2023-05-13T21:12:18.866Z,8.88
2023-05-13T21:14:46.604Z,8.52
2023-05-13T21:17:14.342Z,8.65
2023-05-13T21:19:41.864Z,7.97
2023-05-13T21:22:09.431Z,8.48
2023-05-13T21:24:37.159Z,8.15
2023-05-13T21:27:04.772Z,7.80
2023-05-13T21:29:33.306Z,8.73
2023-05-13T21:32:00.974Z,7.82
2023-05-13T21:34:30.955Z,8.13
2023-05-13T21:36:58.473Z,8.20
2023-05-13T21:39:26.145Z,8.07
2023-05-13T21:41:53.960Z,7.45
2023-05-13T21:44:21.643Z,7.95
2023-05-13T21:46:49.329Z,7.43
2023-05-13T21:49:16.811Z,8.48
2023-05-13T21:51:44.371Z,8.02
2023-05-13T21:54:12.210Z,7.57
2023-05-13T21:56:39.703Z,8.18
2023-05-13T21:59:07.140Z,7.25
2023-05-13T22:01:34.875Z,8.02
2023-05-13T22:04:02.571Z,7.87
2023-05-13T22:06:29.965Z,8.20
2023-05-13T22:08:57.452Z,7.60
2023-05-13T22:11:25.545Z,8.50
2023-05-13T22:13:52.935Z,7.55
2023-05-13T22:16:20.863Z,8.82
2023-05-13T22:18:49.630Z,7.93
2023-05-13T22:21:17.499Z,8.57
2023-05-13T22:23:45.117Z,7.55
2023-05-13T22:26:12.927Z,8.30
2023-05-13T22:28:40.574Z,8.35
2023-05-13T22:31:08.406Z,8.82
2023-05-13T22:33:36.043Z,7.65
2023-05-13T22:36:03.575Z,8.10
2023-05-13T22:38:30.990Z,8.48
2023-05-13T22:40:58.661Z,7.55
2023-05-13T22:43:26.075Z,8.52
2023-05-13T22:45:53.502Z,7.65
2023-05-13T22:48:21.406Z,8.25
2023-05-13T22:50:49.011Z,7.90
2023-05-13T22:53:18.216Z,7.72
2023-05-13T22:55:46.070Z,8.25
2023-05-13T22:58:13.488Z,8.50
2023-05-13T23:00:40.947Z,8.77
2023-05-13T23:03:08.706Z,8.45
2023-05-13T23:05:36.192Z,8.30
2023-05-13T23:08:03.696Z,8.60
2023-05-13T23:10:31.378Z,9.00
2023-05-13T23:12:58.941Z,8.25
2023-05-13T23:15:26.336Z,8.00
2023-05-13T23:17:54.074Z,8.70
2023-05-13T23:20:21.662Z,8.85
2023-05-13T23:22:49.196Z,8.35
2023-05-13T23:25:16.856Z,8.25
2023-05-13T23:27:44.447Z,8.07
2023-05-13T23:30:12.463Z,8.52
2023-05-13T23:32:40.460Z,8.05
2023-05-13T23:35:08.465Z,8.18
2023-05-13T23:37:36.596Z,8.30
2023-05-13T23:40:05.106Z,7.97
2023-05-13T23:42:32.538Z,7.55
2023-05-13T23:45:00.127Z,8.10
2023-05-13T23:47:27.914Z,8.48
2023-05-13T23:49:55.331Z,8.77
2023-05-13T23:52:22.733Z,8.95
2023-05-13T23:54:50.491Z,8.82
2023-05-13T23:57:18.075Z,9.50
2023-05-13T23:59:45.446Z,9.88
